Terminal Aerodrome Forecast
Issued by NWS

Home | Current Version | Previous Version | Text Only | Print | Product List | Glossary On
Versions: 1 2 3 4 5 6 7 8 9 10 11 12 13 14 15 16 17 18 19 20 21 22 23 24 25 26 27 28 29 30 31 32 33 34 35
000
FTUS46 KOTX 290527
TAFSFF
TAF
KSFF 290527Z 2906/3006 04004KT 5SM -SN BR BKN008 OVC035
     FM290800 04010KT P6SM -SHSN BKN025 OVC060
     FM291200 04009KT P6SM BKN050 OVC100
     FM291700 05011G23KT P6SM SCT100
     FM300200 03006KT P6SM SKC=

USA.gov is the U.S. government's official web portal to all federal, state and local government web resources and services.